Terminal Aerodrome Forecast
Issued by NWS Huntsville, AL

Current Version | Previous Version | Text Only | Print | Product List | Glossary On
Versions: 1 2 3 4 5 6 7 8 9 10 11 12 13 14 15 16 17 18 19 20 21 22 23 24 25 26 27 28 29 30 31 32
000
FTUS44 KHUN 221254 AAA
TAFHSV
TAF AMD
KHSV 221254Z 2213/2312 13010G18KT 5SM -DZ BR OVC008
     FM221800 15010G18KT 6SM RA BR OVC010
     FM230100 16010G18KT 6SM BR VCSH OVC008
     FM230900 17008KT 6SM BR VCTS OVC008CB=

USA.gov is the U.S. government's official web portal to all federal, state and local government web resources and services.